sensor_id;sensor_type;location;lat;lon;timestamp;pressure;altitude;pressure_sealevel;temperature;humidity
71559;BME280;59382;43.852;25.952;2023-12-20T00:02:09;101554.16;;;8.82;57.30
71559;BME280;59382;43.852;25.952;2023-12-20T00:04:34;101545.13;;;8.75;57.26
71559;BME280;59382;43.852;25.952;2023-12-20T00:07:01;101549.50;;;8.76;57.45
71559;BME280;59382;43.852;25.952;2023-12-20T00:09:27;101553.50;;;8.80;57.39
71559;BME280;59382;43.852;25.952;2023-12-20T00:11:52;101543.28;;;8.76;57.22
71559;BME280;59382;43.852;25.952;2023-12-20T00:14:17;101546.81;;;8.76;57.31
71559;BME280;59382;43.852;25.952;2023-12-20T00:16:43;101546.16;;;8.74;57.20
71559;BME280;59382;43.852;25.952;2023-12-20T00:19:09;101527.06;;;8.61;57.18
71559;BME280;59382;43.852;25.952;2023-12-20T00:21:34;101536.81;;;8.62;57.19
71559;BME280;59382;43.852;25.952;2023-12-20T00:23:59;101545.66;;;8.71;57.29
71559;BME280;59382;43.852;25.952;2023-12-20T00:26:26;101542.19;;;8.62;57.27
71559;BME280;59382;43.852;25.952;2023-12-20T00:28:53;101530.84;;;8.52;57.48
71559;BME280;59382;43.852;25.952;2023-12-20T00:31:18;101549.41;;;8.62;57.50
71559;BME280;59382;43.852;25.952;2023-12-20T00:33:44;101533.34;;;8.54;57.47
71559;BME280;59382;43.852;25.952;2023-12-20T00:36:11;101521.44;;;8.48;57.24
71559;BME280;59382;43.852;25.952;2023-12-20T00:38:36;101533.00;;;8.57;57.35
71559;BME280;59382;43.852;25.952;2023-12-20T00:41:02;101527.13;;;8.53;57.08
71559;BME280;59382;43.852;25.952;2023-12-20T00:43:28;101474.88;;;8.25;57.40
71559;BME280;59382;43.852;25.952;2023-12-20T00:45:53;101518.75;;;8.48;57.22
71559;BME280;59382;43.852;25.952;2023-12-20T00:48:19;101507.53;;;8.45;56.97
71559;BME280;59382;43.852;25.952;2023-12-20T00:50:44;101518.75;;;8.48;57.24
71559;BME280;59382;43.852;25.952;2023-12-20T00:53:10;101502.84;;;8.39;57.39
71559;BME280;59382;43.852;25.952;2023-12-20T00:55:35;101506.94;;;8.35;57.49
71559;BME280;59382;43.852;25.952;2023-12-20T00:58:01;101511.56;;;8.41;57.51
71559;BME280;59382;43.852;25.952;2023-12-20T01:00:26;101479.22;;;8.26;57.37
71559;BME280;59382;43.852;25.952;2023-12-20T01:02:52;101498.69;;;8.36;57.47
71559;BME280;59382;43.852;25.952;2023-12-20T01:05:18;101492.50;;;8.28;57.37
71559;BME280;59382;43.852;25.952;2023-12-20T01:07:44;101481.09;;;8.26;57.45
71559;BME280;59382;43.852;25.952;2023-12-20T01:10:10;101468.50;;;8.18;57.58
71559;BME280;59382;43.852;25.952;2023-12-20T01:12:38;101481.19;;;8.32;57.60
71559;BME280;59382;43.852;25.952;2023-12-20T01:15:04;101474.66;;;8.35;57.55
71559;BME280;59382;43.852;25.952;2023-12-20T01:17:30;101469.28;;;8.35;57.58
71559;BME280;59382;43.852;25.952;2023-12-20T01:19:56;101458.69;;;8.33;57.49
71559;BME280;59382;43.852;25.952;2023-12-20T01:22:21;101464.50;;;8.45;57.56
71559;BME280;59382;43.852;25.952;2023-12-20T01:24:46;101465.44;;;8.52;57.02
71559;BME280;59382;43.852;25.952;2023-12-20T01:27:12;101457.66;;;8.57;57.44
71559;BME280;59382;43.852;25.952;2023-12-20T01:29:37;101453.78;;;8.59;57.22
71559;BME280;59382;43.852;25.952;2023-12-20T01:32:04;101431.59;;;8.57;57.34
71559;BME280;59382;43.852;25.952;2023-12-20T01:34:29;101436.25;;;8.63;57.40
71559;BME280;59382;43.852;25.952;2023-12-20T01:36:55;101418.81;;;8.59;57.23
71559;BME280;59382;43.852;25.952;2023-12-20T01:39:20;101424.75;;;8.69;57.11
71559;BME280;59382;43.852;25.952;2023-12-20T01:41:46;101409.34;;;8.63;57.14
71559;BME280;59382;43.852;25.952;2023-12-20T01:44:11;101386.03;;;8.56;57.07
71559;BME280;59382;43.852;25.952;2023-12-20T01:46:37;101404.94;;;8.70;57.13
71559;BME280;59382;43.852;25.952;2023-12-20T01:49:03;101397.84;;;8.69;56.96
71559;BME280;59382;43.852;25.952;2023-12-20T01:51:28;101393.13;;;8.71;57.08
71559;BME280;59382;43.852;25.952;2023-12-20T01:53:56;101393.31;;;8.70;57.27
71559;BME280;59382;43.852;25.952;2023-12-20T01:56:23;101370.38;;;8.59;57.02
71559;BME280;59382;43.852;25.952;2023-12-20T01:58:49;101361.75;;;8.49;57.05
71559;BME280;59382;43.852;25.952;2023-12-20T02:01:15;101384.50;;;8.61;56.93
71559;BME280;59382;43.852;25.952;2023-12-20T02:03:41;101378.25;;;8.61;57.00
71559;BME280;59382;43.852;25.952;2023-12-20T02:06:07;101383.84;;;8.59;57.32
71559;BME280;59382;43.852;25.952;2023-12-20T02:08:34;101360.72;;;8.50;57.40
71559;BME280;59382;43.852;25.952;2023-12-20T02:10:59;101359.41;;;8.46;57.30
71559;BME280;59382;43.852;25.952;2023-12-20T02:13:25;101372.78;;;8.54;57.63
71559;BME280;59382;43.852;25.952;2023-12-20T02:15:52;101355.22;;;8.44;57.42
71559;BME280;59382;43.852;25.952;2023-12-20T02:18:18;101368.13;;;8.48;57.22
71559;BME280;59382;43.852;25.952;2023-12-20T02:20:43;101372.19;;;8.44;57.35
71559;BME280;59382;43.852;25.952;2023-12-20T02:23:09;101370.06;;;8.40;57.32
71559;BME280;59382;43.852;25.952;2023-12-20T02:25:34;101368.56;;;8.37;57.32
71559;BME280;59382;43.852;25.952;2023-12-20T02:28:00;101354.56;;;8.27;57.52
71559;BME280;59382;43.852;25.952;2023-12-20T02:30:26;101362.88;;;8.32;57.46
71559;BME280;59382;43.852;25.952;2023-12-20T02:32:52;101355.38;;;8.28;57.35
71559;BME280;59382;43.852;25.952;2023-12-20T02:35:18;101341.97;;;8.20;57.37
71559;BME280;59382;43.852;25.952;2023-12-20T02:37:44;101347.84;;;8.23;57.53
71559;BME280;59382;43.852;25.952;2023-12-20T02:40:10;101344.47;;;8.21;57.35
71559;BME280;59382;43.852;25.952;2023-12-20T02:42:35;101343.50;;;8.14;57.33
71559;BME280;59382;43.852;25.952;2023-12-20T02:45:01;101327.34;;;7.99;57.23
71559;BME280;59382;43.852;25.952;2023-12-20T02:47:26;101326.84;;;7.96;57.32
71559;BME280;59382;43.852;25.952;2023-12-20T02:49:52;101328.19;;;8.00;57.46
71559;BME280;59382;43.852;25.952;2023-12-20T02:52:18;101341.19;;;8.11;57.42
71559;BME280;59382;43.852;25.952;2023-12-20T02:54:43;101333.13;;;8.11;57.26
71559;BME280;59382;43.852;25.952;2023-12-20T02:57:09;101333.59;;;8.15;57.38
71559;BME280;59382;43.852;25.952;2023-12-20T02:59:34;101330.75;;;8.16;57.30
71559;BME280;59382;43.852;25.952;2023-12-20T03:02:00;101323.34;;;8.18;57.36
71559;BME280;59382;43.852;25.952;2023-12-20T03:04:26;101327.03;;;8.17;57.29
71559;BME280;59382;43.852;25.952;2023-12-20T03:06:51;101319.97;;;8.16;57.29
71559;BME280;59382;43.852;25.952;2023-12-20T03:09:17;101311.63;;;8.11;57.21
71559;BME280;59382;43.852;25.952;2023-12-20T03:11:42;101322.13;;;8.21;57.15
71559;BME280;59382;43.852;25.952;2023-12-20T03:14:07;101314.47;;;8.09;57.23
71559;BME280;59382;43.852;25.952;2023-12-20T03:16:33;101313.66;;;8.09;57.01
71559;BME280;59382;43.852;25.952;2023-12-20T03:18:58;101313.66;;;8.09;57.17
71559;BME280;59382;43.852;25.952;2023-12-20T03:21:24;101301.59;;;8.05;56.98
71559;BME280;59382;43.852;25.952;2023-12-20T03:23:49;101329.44;;;8.12;57.13
71559;BME280;59382;43.852;25.952;2023-12-20T03:26:15;101298.44;;;8.01;57.19
71559;BME280;59382;43.852;25.952;2023-12-20T03:28:40;101309.94;;;8.10;57.18
71559;BME280;59382;43.852;25.952;2023-12-20T03:31:06;101304.94;;;8.07;57.18
71559;BME280;59382;43.852;25.952;2023-12-20T03:33:31;101295.22;;;8.06;57.10
71559;BME280;59382;43.852;25.952;2023-12-20T03:35:57;101297.19;;;8.12;57.03
71559;BME280;59382;43.852;25.952;2023-12-20T03:38:22;101297.81;;;8.14;57.02
71559;BME280;59382;43.852;25.952;2023-12-20T03:40:51;101289.75;;;8.14;57.12
71559;BME280;59382;43.852;25.952;2023-12-20T03:43:16;101268.34;;;8.06;56.91
71559;BME280;59382;43.852;25.952;2023-12-20T03:45:42;101270.31;;;8.12;56.98
71559;BME280;59382;43.852;25.952;2023-12-20T03:48:08;101269.94;;;8.15;57.00
71559;BME280;59382;43.852;25.952;2023-12-20T03:50:34;101250.81;;;8.10;56.90
71559;BME280;59382;43.852;25.952;2023-12-20T03:53:00;101262.97;;;8.21;56.74
71559;BME280;59382;43.852;25.952;2023-12-20T03:55:26;101267.50;;;8.20;56.94
71559;BME280;59382;43.852;25.952;2023-12-20T03:57:51;101240.06;;;8.10;56.86
71559;BME280;59382;43.852;25.952;2023-12-20T04:00:17;101263.84;;;8.21;56.87
71559;BME280;59382;43.852;25.952;2023-12-20T04:02:43;101256.75;;;8.20;56.84
71559;BME280;59382;43.852;25.952;2023-12-20T04:05:09;101259.63;;;8.19;56.83
71559;BME280;59382;43.852;25.952;2023-12-20T04:07:37;101253.81;;;8.15;56.84
71559;BME280;59382;43.852;25.952;2023-12-20T04:10:03;101233.41;;;8.06;56.67
71559;BME280;59382;43.852;25.952;2023-12-20T04:12:30;101245.81;;;8.07;57.08
71559;BME280;59382;43.852;25.952;2023-12-20T04:14:56;101239.03;;;8.11;56.98
71559;BME280;59382;43.852;25.952;2023-12-20T04:17:22;101236.72;;;8.08;56.98
71559;BME280;59382;43.852;25.952;2023-12-20T04:19:51;101238.03;;;8.12;56.74
71559;BME280;59382;43.852;25.952;2023-12-20T04:22:19;101242.41;;;8.13;56.73
71559;BME280;59382;43.852;25.952;2023-12-20T04:24:45;101220.69;;;8.00;56.78
71559;BME280;59382;43.852;25.952;2023-12-20T04:27:10;101241.09;;;8.09;56.59
71559;BME280;59382;43.852;25.952;2023-12-20T04:29:36;101226.34;;;8.05;56.36
71559;BME280;59382;43.852;25.952;2023-12-20T04:32:02;101231.06;;;8.03;56.63
71559;BME280;59382;43.852;25.952;2023-12-20T04:34:27;101228.38;;;8.03;56.86
71559;BME280;59382;43.852;25.952;2023-12-20T04:36:53;101229.03;;;8.05;56.59
71559;BME280;59382;43.852;25.952;2023-12-20T04:39:19;101223.75;;;7.97;56.63
71559;BME280;59382;43.852;25.952;2023-12-20T04:41:45;101209.06;;;7.85;56.73
71559;BME280;59382;43.852;25.952;2023-12-20T04:44:13;101219.09;;;7.91;56.74
71559;BME280;59382;43.852;25.952;2023-12-20T04:46:38;101227.16;;;7.91;56.61
71559;BME280;59382;43.852;25.952;2023-12-20T04:49:04;101209.06;;;7.85;56.67
71559;BME280;59382;43.852;25.952;2023-12-20T04:51:29;101215.84;;;7.81;56.52
71559;BME280;59382;43.852;25.952;2023-12-20T04:53:55;101202.09;;;7.76;56.75
71559;BME280;59382;43.852;25.952;2023-12-20T04:56:20;101215.66;;;7.82;56.66
71559;BME280;59382;43.852;25.952;2023-12-20T04:58:46;101221.13;;;7.89;56.68
71559;BME280;59382;43.852;25.952;2023-12-20T05:01:12;101199.97;;;7.86;56.53
71559;BME280;59382;43.852;25.952;2023-12-20T05:03:38;101217.88;;;7.93;56.59
71559;BME280;59382;43.852;25.952;2023-12-20T05:06:03;101217.06;;;7.93;56.55
71559;BME280;59382;43.852;25.952;2023-12-20T05:08:29;101220.13;;;7.90;56.40
71559;BME280;59382;43.852;25.952;2023-12-20T05:10:55;101199.06;;;7.79;56.50
71559;BME280;59382;43.852;25.952;2023-12-20T05:13:21;101217.50;;;7.82;56.53
71559;BME280;59382;43.852;25.952;2023-12-20T05:15:46;101218.53;;;7.81;56.87
71559;BME280;59382;43.852;25.952;2023-12-20T05:18:12;101214.50;;;7.77;56.66
71559;BME280;59382;43.852;25.952;2023-12-20T05:20:38;101204.84;;;7.68;56.41
71559;BME280;59382;43.852;25.952;2023-12-20T05:23:04;101208.06;;;7.63;56.62
71559;BME280;59382;43.852;25.952;2023-12-20T05:25:29;101213.75;;;7.68;56.64
71559;BME280;59382;43.852;25.952;2023-12-20T05:27:55;101200.72;;;7.57;56.69
71559;BME280;59382;43.852;25.952;2023-12-20T05:30:21;101211.13;;;7.60;56.66
71559;BME280;59382;43.852;25.952;2023-12-20T05:32:47;101179.88;;;7.45;56.82
71559;BME280;59382;43.852;25.952;2023-12-20T05:35:12;101194.25;;;7.52;56.63
71559;BME280;59382;43.852;25.952;2023-12-20T05:37:38;101185.25;;;7.45;56.69
71559;BME280;59382;43.852;25.952;2023-12-20T05:40:04;101203.31;;;7.51;57.15
71559;BME280;59382;43.852;25.952;2023-12-20T05:42:30;101200.31;;;7.46;56.91
71559;BME280;59382;43.852;25.952;2023-12-20T05:44:55;101199.19;;;7.40;56.80
71559;BME280;59382;43.852;25.952;2023-12-20T05:47:20;101189.53;;;7.31;57.01
71559;BME280;59382;43.852;25.952;2023-12-20T05:49:46;101193.34;;;7.37;56.92
71559;BME280;59382;43.852;25.952;2023-12-20T05:52:12;101201.41;;;7.37;56.79
71559;BME280;59382;43.852;25.952;2023-12-20T05:54:37;101201.47;;;7.29;56.76
71559;BME280;59382;43.852;25.952;2023-12-20T05:57:03;101182.13;;;7.11;56.93
71559;BME280;59382;43.852;25.952;2023-12-20T05:59:28;101203.25;;;7.14;57.30
71559;BME280;59382;43.852;25.952;2023-12-20T06:01:54;101214.94;;;7.21;56.96
71559;BME280;59382;43.852;25.952;2023-12-20T06:04:19;101192.88;;;7.11;57.06
71559;BME280;59382;43.852;25.952;2023-12-20T06:06:45;101207.56;;;7.23;56.98
71559;BME280;59382;43.852;25.952;2023-12-20T06:09:11;101200.50;;;7.22;57.21
71559;BME280;59382;43.852;25.952;2023-12-20T06:11:37;101197.44;;;7.25;56.92
71559;BME280;59382;43.852;25.952;2023-12-20T06:14:03;101209.53;;;7.29;56.87
71559;BME280;59382;43.852;25.952;2023-12-20T06:16:28;101187.44;;;7.19;56.66
71559;BME280;59382;43.852;25.952;2023-12-20T06:18:54;101206.78;;;7.37;56.94
71559;BME280;59382;43.852;25.952;2023-12-20T06:21:19;101207.09;;;7.42;56.62
71559;BME280;59382;43.852;25.952;2023-12-20T06:23:45;101200.69;;;7.43;56.72
71559;BME280;59382;43.852;25.952;2023-12-20T06:26:10;101201.63;;;7.50;56.58
71559;BME280;59382;43.852;25.952;2023-12-20T06:28:36;101189.31;;;7.41;56.55
71559;BME280;59382;43.852;25.952;2023-12-20T06:31:01;101175.88;;;7.18;56.70
71559;BME280;59382;43.852;25.952;2023-12-20T06:33:28;101202.66;;;7.26;57.16
71559;BME280;59382;43.852;25.952;2023-12-20T06:35:54;101201.84;;;7.26;57.03
71559;BME280;59382;43.852;25.952;2023-12-20T06:38:20;101197.78;;;7.30;57.25
71559;BME280;59382;43.852;25.952;2023-12-20T06:40:46;101204.44;;;7.34;57.06
71559;BME280;59382;43.852;25.952;2023-12-20T06:43:12;101203.72;;;7.40;57.26
71559;BME280;59382;43.852;25.952;2023-12-20T06:45:38;101197.66;;;7.46;56.85
71559;BME280;59382;43.852;25.952;2023-12-20T06:48:04;101168.19;;;7.38;56.67
71559;BME280;59382;43.852;25.952;2023-12-20T06:50:30;101185.16;;;7.53;56.51
71559;BME280;59382;43.852;25.952;2023-12-20T06:52:57;101177.81;;;7.47;56.29
71559;BME280;59382;43.852;25.952;2023-12-20T06:55:22;101190.84;;;7.58;56.06
71559;BME280;59382;43.852;25.952;2023-12-20T06:57:48;101178.78;;;7.54;56.42
71559;BME280;59382;43.852;25.952;2023-12-20T07:00:14;101170.06;;;7.52;56.38
71559;BME280;59382;43.852;25.952;2023-12-20T07:02:40;101174.53;;;7.59;56.27
71559;BME280;59382;43.852;25.952;2023-12-20T07:05:06;101174.47;;;7.67;56.43
71559;BME280;59382;43.852;25.952;2023-12-20T07:07:31;101171.06;;;7.73;56.10
71559;BME280;59382;43.852;25.952;2023-12-20T07:09:57;101173.47;;;7.83;55.89
71559;BME280;59382;43.852;25.952;2023-12-20T07:12:22;101149.66;;;7.80;55.84
71559;BME280;59382;43.852;25.952;2023-12-20T07:14:48;101151.00;;;7.98;55.78
71559;BME280;59382;43.852;25.952;2023-12-20T07:17:13;101155.97;;;8.24;55.49
71559;BME280;59382;43.852;25.952;2023-12-20T07:19:41;101167.59;;;8.60;55.17
71559;BME280;59382;43.852;25.952;2023-12-20T07:22:06;101165.34;;;8.78;54.92
71559;BME280;59382;43.852;25.952;2023-12-20T07:24:32;101165.50;;;8.91;54.62
71559;BME280;59382;43.852;25.952;2023-12-20T07:26:59;101145.28;;;8.95;54.75
71559;BME280;59382;43.852;25.952;2023-12-20T07:29:25;101139.75;;;9.03;54.63
71559;BME280;59382;43.852;25.952;2023-12-20T07:31:51;101137.59;;;9.13;54.20
71559;BME280;59382;43.852;25.952;2023-12-20T07:34:17;101132.72;;;9.23;54.12
71559;BME280;59382;43.852;25.952;2023-12-20T07:36:43;101147.56;;;9.40;53.94
71559;BME280;59382;43.852;25.952;2023-12-20T07:39:08;101117.06;;;9.33;53.82
71559;BME280;59382;43.852;25.952;2023-12-20T07:41:34;101132.53;;;9.46;53.88
71559;BME280;59382;43.852;25.952;2023-12-20T07:43:59;101144.44;;;9.58;53.50
71559;BME280;59382;43.852;25.952;2023-12-20T07:46:25;101130.31;;;9.56;53.52
71559;BME280;59382;43.852;25.952;2023-12-20T07:48:51;101135.50;;;9.57;53.69
71559;BME280;59382;43.852;25.952;2023-12-20T07:51:16;101124.47;;;9.52;53.71
71559;BME280;59382;43.852;25.952;2023-12-20T07:53:42;101124.47;;;9.52;53.50
71559;BME280;59382;43.852;25.952;2023-12-20T07:56:18;101125.06;;;9.48;53.61
71559;BME280;59382;43.852;25.952;2023-12-20T07:58:45;101116.69;;;9.36;53.98
71559;BME280;59382;43.852;25.952;2023-12-20T08:01:11;101141.19;;;9.41;54.12
71559;BME280;59382;43.852;25.952;2023-12-20T08:03:37;101124.09;;;9.34;54.01
71559;BME280;59382;43.852;25.952;2023-12-20T08:06:03;101123.59;;;9.24;54.06
71559;BME280;59382;43.852;25.952;2023-12-20T08:08:28;101136.44;;;9.22;54.49
71559;BME280;59382;43.852;25.952;2023-12-20T08:10:54;101126.81;;;9.13;54.74
71559;BME280;59382;43.852;25.952;2023-12-20T08:13:19;101136.84;;;9.19;54.51
71559;BME280;59382;43.852;25.952;2023-12-20T08:15:45;101118.94;;;9.12;54.72
71559;BME280;59382;43.852;25.952;2023-12-20T08:18:11;101125.03;;;9.20;54.52
71559;BME280;59382;43.852;25.952;2023-12-20T08:20:36;101129.00;;;9.24;54.80
71559;BME280;59382;43.852;25.952;2023-12-20T08:23:02;101124.91;;;9.28;54.64
71559;BME280;59382;43.852;25.952;2023-12-20T08:25:27;101129.91;;;9.31;54.48
71559;BME280;59382;43.852;25.952;2023-12-20T08:27:53;101107.06;;;9.27;54.66
71559;BME280;59382;43.852;25.952;2023-12-20T08:30:19;101112.56;;;9.40;54.33
71559;BME280;59382;43.852;25.952;2023-12-20T08:32:48;101099.75;;;9.42;54.66
71559;BME280;59382;43.852;25.952;2023-12-20T08:35:13;101102.50;;;9.49;54.33
71559;BME280;59382;43.852;25.952;2023-12-20T08:37:39;101076.47;;;9.35;54.16
71559;BME280;59382;43.852;25.952;2023-12-20T08:40:05;101092.69;;;9.41;54.58
71559;BME280;59382;43.852;25.952;2023-12-20T08:42:31;101058.19;;;9.30;54.78
71559;BME280;59382;43.852;25.952;2023-12-20T08:44:59;101076.16;;;9.44;54.59
71559;BME280;59382;43.852;25.952;2023-12-20T08:47:25;101067.03;;;9.45;54.43
71559;BME280;59382;43.852;25.952;2023-12-20T08:49:51;101020.47;;;9.24;54.57
71559;BME280;59382;43.852;25.952;2023-12-20T08:52:16;101061.50;;;9.53;54.49
71559;BME280;59382;43.852;25.952;2023-12-20T08:54:42;101048.81;;;9.47;54.14
71559;BME280;59382;43.852;25.952;2023-12-20T08:57:07;101038.38;;;9.38;54.21
71559;BME280;59382;43.852;25.952;2023-12-20T08:59:33;101047.91;;;9.40;54.81
71559;BME280;59382;43.852;25.952;2023-12-20T09:01:58;101054.59;;;9.44;54.80
71559;BME280;59382;43.852;25.952;2023-12-20T09:04:24;101046.31;;;9.46;54.67
71559;BME280;59382;43.852;25.952;2023-12-20T09:06:50;101027.59;;;9.38;54.47
71559;BME280;59382;43.852;25.952;2023-12-20T09:09:16;101041.13;;;9.44;54.77
71559;BME280;59382;43.852;25.952;2023-12-20T09:11:44;101016.38;;;9.34;55.01
71559;BME280;59382;43.852;25.952;2023-12-20T09:14:11;101014.09;;;9.31;55.02
71559;BME280;59382;43.852;25.952;2023-12-20T09:16:36;101027.22;;;9.41;54.87
71559;BME280;59382;43.852;25.952;2023-12-20T09:19:02;101002.28;;;9.32;55.08
71559;BME280;59382;43.852;25.952;2023-12-20T09:21:27;101000.66;;;9.38;54.81
71559;BME280;59382;43.852;25.952;2023-12-20T09:23:53;101006.53;;;9.48;55.08
71559;BME280;59382;43.852;25.952;2023-12-20T09:26:18;101007.75;;;9.45;55.01
71559;BME280;59382;43.852;25.952;2023-12-20T09:28:45;100994.28;;;9.45;55.03
71559;BME280;59382;43.852;25.952;2023-12-20T09:31:10;100998.75;;;9.59;55.15
71559;BME280;59382;43.852;25.952;2023-12-20T09:33:36;100997.97;;;9.65;54.85
71559;BME280;59382;43.852;25.952;2023-12-20T09:36:01;100974.31;;;9.61;55.11
71559;BME280;59382;43.852;25.952;2023-12-20T09:38:27;100982.25;;;9.75;54.59
71559;BME280;59382;43.852;25.952;2023-12-20T09:40:52;100965.69;;;9.78;54.77
71559;BME280;59382;43.852;25.952;2023-12-20T09:43:24;100963.66;;;9.87;54.61
71559;BME280;59382;43.852;25.952;2023-12-20T09:45:53;100944.19;;;9.91;54.84
71559;BME280;59382;43.852;25.952;2023-12-20T09:48:19;100929.41;;;9.81;54.97
71559;BME280;59382;43.852;25.952;2023-12-20T09:50:45;100910.13;;;9.77;54.95
71559;BME280;59382;43.852;25.952;2023-12-20T09:53:15;100922.63;;;9.91;54.93
71559;BME280;59382;43.852;25.952;2023-12-20T09:55:41;100912.88;;;9.90;55.15
71559;BME280;59382;43.852;25.952;2023-12-20T09:58:07;100906.19;;;9.86;55.33
71559;BME280;59382;43.852;25.952;2023-12-20T10:00:37;100885.69;;;9.79;54.91
71559;BME280;59382;43.852;25.952;2023-12-20T10:03:03;100910.22;;;10.03;54.97
71559;BME280;59382;43.852;25.952;2023-12-20T10:05:32;100902.75;;;10.06;54.87
71559;BME280;59382;43.852;25.952;2023-12-20T10:07:59;100890.91;;;9.93;55.14
71559;BME280;59382;43.852;25.952;2023-12-20T10:10:25;100893.81;;;9.98;54.97
71559;BME280;59382;43.852;25.952;2023-12-20T10:13:08;100887.41;;;9.99;54.97
71559;BME280;59382;43.852;25.952;2023-12-20T10:15:34;100882.88;;;10.07;54.91
71559;BME280;59382;43.852;25.952;2023-12-20T10:18:04;100872.09;;;10.07;54.86
71559;BME280;59382;43.852;25.952;2023-12-20T10:20:30;100864.44;;;10.10;55.30
71559;BME280;59382;43.852;25.952;2023-12-20T10:22:57;100870.03;;;10.28;54.99
71559;BME280;59382;43.852;25.952;2023-12-20T10:25:23;100853.66;;;10.30;54.74
71559;BME280;59382;43.852;25.952;2023-12-20T10:27:50;100858.44;;;10.41;54.57
71559;BME280;59382;43.852;25.952;2023-12-20T10:30:33;100851.59;;;10.45;54.74
71559;BME280;59382;43.852;25.952;2023-12-20T10:32:59;100856.78;;;10.53;54.60
71559;BME280;59382;43.852;25.952;2023-12-20T10:35:25;100845.16;;;10.59;54.71
71559;BME280;59382;43.852;25.952;2023-12-20T10:37:55;100839.16;;;10.63;54.70
71559;BME280;59382;43.852;25.952;2023-12-20T10:40:21;100838.53;;;10.68;54.37
71559;BME280;59382;43.852;25.952;2023-12-20T10:42:47;100836.03;;;10.73;54.78
71559;BME280;59382;43.852;25.952;2023-12-20T10:45:12;100830.81;;;10.78;54.42
71559;BME280;59382;43.852;25.952;2023-12-20T10:47:39;100826.47;;;10.77;54.32
71559;BME280;59382;43.852;25.952;2023-12-20T10:50:06;100815.25;;;10.80;54.63
71559;BME280;59382;43.852;25.952;2023-12-20T10:52:34;100816.06;;;10.87;54.49
71559;BME280;59382;43.852;25.952;2023-12-20T10:55:01;100804.44;;;10.93;54.52
71559;BME280;59382;43.852;25.952;2023-12-20T10:57:27;100790.34;;;10.84;54.36
71559;BME280;59382;43.852;25.952;2023-12-20T10:59:54;100782.88;;;10.80;54.36
71559;BME280;59382;43.852;25.952;2023-12-20T11:02:21;100794.88;;;10.84;54.45
71559;BME280;59382;43.852;25.952;2023-12-20T11:04:55;100795.69;;;10.91;54.51
71559;BME280;59382;43.852;25.952;2023-12-20T11:07:35;100784.94;;;10.84;54.86
71559;BME280;59382;43.852;25.952;2023-12-20T11:10:19;100785.09;;;10.96;54.69
71559;BME280;59382;43.852;25.952;2023-12-20T11:12:56;100783.41;;;11.08;54.56
71559;BME280;59382;43.852;25.952;2023-12-20T11:15:24;100786.84;;;11.28;54.70
71559;BME280;59382;43.852;25.952;2023-12-20T11:17:57;100785.56;;;11.37;54.07
71559;BME280;59382;43.852;25.952;2023-12-20T11:20:24;100779.50;;;11.48;54.44
71559;BME280;59382;43.852;25.952;2023-12-20T11:23:00;100781.13;;;11.55;54.37
71559;BME280;59382;43.852;25.952;2023-12-20T11:25:26;100757.25;;;11.46;54.28
71559;BME280;59382;43.852;25.952;2023-12-20T11:28:08;100751.47;;;11.42;54.55
71559;BME280;59382;43.852;25.952;2023-12-20T11:30:58;100763.91;;;11.50;54.84
71559;BME280;59382;43.852;25.952;2023-12-20T11:33:30;100770.13;;;11.50;54.54
71559;BME280;59382;43.852;25.952;2023-12-20T11:35:57;100766.00;;;11.48;54.75
71559;BME280;59382;43.852;25.952;2023-12-20T11:38:24;100756.03;;;11.42;54.83
71559;BME280;59382;43.852;25.952;2023-12-20T11:40:50;100769.66;;;11.60;54.49
71559;BME280;59382;43.852;25.952;2023-12-20T11:43:35;100752.63;;;11.66;54.46
71559;BME280;59382;43.852;25.952;2023-12-20T11:46:08;100750.97;;;11.65;54.56
71559;BME280;59382;43.852;25.952;2023-12-20T11:48:36;100734.13;;;11.63;54.60
71559;BME280;59382;43.852;25.952;2023-12-20T11:51:09;100733.47;;;11.61;54.67
71559;BME280;59382;43.852;25.952;2023-12-20T11:53:35;100733.91;;;11.58;54.74
71559;BME280;59382;43.852;25.952;2023-12-20T11:56:03;100721.88;;;11.54;55.03
71559;BME280;59382;43.852;25.952;2023-12-20T11:58:29;100688.31;;;11.37;55.08
71559;BME280;59382;43.852;25.952;2023-12-20T12:00:55;100715.59;;;11.60;54.79
71559;BME280;59382;43.852;25.952;2023-12-20T12:03:20;100686.34;;;11.50;55.24
71559;BME280;59382;43.852;25.952;2023-12-20T12:05:47;100700.63;;;11.64;54.97
71559;BME280;59382;43.852;25.952;2023-12-20T12:08:13;100684.25;;;11.59;54.60
71559;BME280;59382;43.852;25.952;2023-12-20T12:10:39;100692.72;;;11.69;54.59
71559;BME280;59382;43.852;25.952;2023-12-20T12:13:05;100670.72;;;11.59;55.00
71559;BME280;59382;43.852;25.952;2023-12-20T12:15:30;100685.47;;;11.63;55.37
71559;BME280;59382;43.852;25.952;2023-12-20T12:17:56;100681.94;;;11.62;54.74
71559;BME280;59382;43.852;25.952;2023-12-20T12:20:23;100659.53;;;11.49;55.02
71559;BME280;59382;43.852;25.952;2023-12-20T12:23:03;100650.03;;;11.40;54.93
71559;BME280;59382;43.852;25.952;2023-12-20T12:25:30;100666.63;;;11.50;55.23
71559;BME280;59382;43.852;25.952;2023-12-20T12:27:57;100665.13;;;11.54;55.22
71559;BME280;59382;43.852;25.952;2023-12-20T12:30:24;100665.31;;;11.59;54.76
71559;BME280;59382;43.852;25.952;2023-12-20T12:32:51;100667.41;;;11.63;54.89
71559;BME280;59382;43.852;25.952;2023-12-20T12:35:17;100671.53;;;11.66;54.58
71559;BME280;59382;43.852;25.952;2023-12-20T12:37:43;100677.78;;;11.66;54.76
71559;BME280;59382;43.852;25.952;2023-12-20T12:40:13;100663.84;;;11.63;54.88
71559;BME280;59382;43.852;25.952;2023-12-20T12:42:40;100664.47;;;11.65;54.51
71559;BME280;59382;43.852;25.952;2023-12-20T12:45:07;100668.59;;;11.67;54.47